createdAt,value
2024-02-14T00:02:27.589Z,2.60
2024-02-14T00:04:56.401Z,2.60
2024-02-14T00:07:23.988Z,2.80
2024-02-14T00:09:51.546Z,2.45
2024-02-14T00:12:19.026Z,2.50
2024-02-14T00:14:46.507Z,2.58
2024-02-14T00:17:14.074Z,2.70
2024-02-14T00:19:41.749Z,2.88
2024-02-14T00:22:10.687Z,2.60
2024-02-14T00:24:38.120Z,2.70
2024-02-14T00:27:05.800Z,2.75
2024-02-14T00:29:35.157Z,2.88
2024-02-14T00:32:02.788Z,3.70
2024-02-14T00:34:30.402Z,2.85
2024-02-14T00:36:57.996Z,3.08
2024-02-14T00:39:29.831Z,2.60
2024-02-14T00:41:57.574Z,2.42
2024-02-14T00:44:25.137Z,2.85
2024-02-14T00:46:57.416Z,2.30
2024-02-14T00:49:25.243Z,2.45
2024-02-14T00:51:52.818Z,3.25
2024-02-14T00:54:20.555Z,2.95
2024-02-14T00:56:49.507Z,2.70
2024-02-14T00:59:17.857Z,2.90
2024-02-14T01:01:45.734Z,2.60
2024-02-14T01:04:13.399Z,2.60
2024-02-14T01:06:40.875Z,2.20
2024-02-14T01:09:09.721Z,2.78
2024-02-14T01:11:40.274Z,2.45
2024-02-14T01:14:09.422Z,2.00
2024-02-14T01:16:43.595Z,2.45
2024-02-14T01:19:11.224Z,2.70
2024-02-14T01:21:38.714Z,2.70
2024-02-14T01:24:07.175Z,2.80
2024-02-14T01:26:34.766Z,2.67
2024-02-14T01:29:02.317Z,2.55
2024-02-14T01:31:31.307Z,2.60
2024-02-14T01:34:03.123Z,2.95
2024-02-14T01:36:31.112Z,2.80
2024-02-14T01:38:58.656Z,2.78
2024-02-14T01:41:26.199Z,2.92
2024-02-14T01:43:53.754Z,2.88
2024-02-14T01:46:24.049Z,2.92
2024-02-14T01:48:53.012Z,3.13
2024-02-14T01:51:22.232Z,3.20
2024-02-14T01:53:49.721Z,3.10
2024-02-14T01:56:17.662Z,3.25
2024-02-14T01:58:46.017Z,3.10
2024-02-14T02:01:13.601Z,3.10
2024-02-14T02:03:41.582Z,3.00
2024-02-14T02:06:10.776Z,3.22
2024-02-14T02:08:38.510Z,3.15
2024-02-14T02:11:07.632Z,3.40
2024-02-14T02:13:35.106Z,3.40
2024-02-14T02:16:06.068Z,3.60
2024-02-14T02:18:33.983Z,2.92
2024-02-14T02:21:04.954Z,3.33
2024-02-14T02:23:33.822Z,3.42
2024-02-14T02:26:01.389Z,3.90
2024-02-14T02:28:28.858Z,3.38
2024-02-14T02:30:56.657Z,3.17
2024-02-14T02:33:24.324Z,3.63
2024-02-14T02:35:52.418Z,3.53
2024-02-14T02:38:21.085Z,3.20
2024-02-14T02:40:50.040Z,3.03
2024-02-14T02:43:17.562Z,2.92
2024-02-14T02:45:45.505Z,3.00
2024-02-14T02:48:13.586Z,3.05
2024-02-14T02:50:41.263Z,2.95
2024-02-14T02:53:08.856Z,3.05
2024-02-14T02:55:38.153Z,3.13
2024-02-14T02:58:07.962Z,3.22
2024-02-14T03:00:35.550Z,3.13
2024-02-14T03:03:03.762Z,2.90
2024-02-14T03:05:34.794Z,3.33
2024-02-14T03:08:02.370Z,3.17
2024-02-14T03:10:30.737Z,2.92
2024-02-14T03:12:58.226Z,3.55
2024-02-14T03:15:27.430Z,2.90
2024-02-14T03:17:55.016Z,3.00
2024-02-14T03:20:22.623Z,2.65
2024-02-14T03:22:50.116Z,3.22
2024-02-14T03:25:18.737Z,3.30
2024-02-14T03:27:48.247Z,2.90
2024-02-14T03:30:17.413Z,3.40
2024-02-14T03:32:48.068Z,3.60
2024-02-14T03:35:15.776Z,3.15
2024-02-14T03:37:43.619Z,3.40
2024-02-14T03:40:12.009Z,3.40
2024-02-14T03:42:40.974Z,3.15
2024-02-14T03:45:09.446Z,2.92
2024-02-14T03:47:40.597Z,3.60
2024-02-14T03:50:10.382Z,3.33
2024-02-14T03:52:37.872Z,3.25
2024-02-14T03:55:05.747Z,3.40
2024-02-14T03:57:34.256Z,3.40
2024-02-14T04:00:02.801Z,2.97
2024-02-14T04:02:40.699Z,2.58
2024-02-14T04:05:10.522Z,4.22
2024-02-14T04:07:38.735Z,3.10
2024-02-14T04:10:07.019Z,3.47
2024-02-14T04:12:34.794Z,3.53
2024-02-14T04:15:02.388Z,3.60
2024-02-14T04:17:29.971Z,3.45
2024-02-14T04:19:57.509Z,3.60
2024-02-14T04:22:26.432Z,3.50
2024-02-14T04:24:53.897Z,7.18
2024-02-14T04:27:20.438Z,3.75
2024-02-14T04:29:48.578Z,3.70
2024-02-14T04:32:16.263Z,3.80
2024-02-14T04:34:45.191Z,3.50
2024-02-14T04:37:14.916Z,3.35
2024-02-14T04:39:43.961Z,3.38
2024-02-14T04:42:11.736Z,4.00
2024-02-14T04:44:42.179Z,3.85
2024-02-14T04:47:10.728Z,3.72
2024-02-14T04:49:38.731Z,3.97
2024-02-14T04:52:06.664Z,3.70
2024-02-14T04:54:34.080Z,4.05
2024-02-14T04:57:05.048Z,4.20
2024-02-14T04:59:32.893Z,4.60
2024-02-14T05:02:00.759Z,3.90
2024-02-14T05:04:28.852Z,4.32
2024-02-14T05:06:59.146Z,4.07
2024-02-14T05:09:27.357Z,4.32
2024-02-14T05:11:54.929Z,4.15
2024-02-14T05:14:24.449Z,4.10
2024-02-14T05:16:54.372Z,4.65
2024-02-14T05:19:23.006Z,4.20
2024-02-14T05:21:51.248Z,4.65
2024-02-14T05:24:18.823Z,4.28
2024-02-14T05:26:46.382Z,4.57
2024-02-14T05:29:14.994Z,5.40
2024-02-14T05:31:47.365Z,4.38
2024-02-14T05:34:15.268Z,4.20
2024-02-14T05:36:43.993Z,5.72
2024-02-14T05:39:11.972Z,4.40
2024-02-14T05:41:39.623Z,4.75
2024-02-14T05:44:07.943Z,4.47
2024-02-14T05:46:35.485Z,4.30
2024-02-14T05:49:04.840Z,4.25
2024-02-14T05:51:32.861Z,4.93
2024-02-14T05:54:01.093Z,4.32
2024-02-14T05:56:28.732Z,4.97
2024-02-14T05:58:56.497Z,4.65
2024-02-14T06:01:24.406Z,5.00
2024-02-14T06:03:52.219Z,4.50
2024-02-14T06:06:21.371Z,3.85
2024-02-14T06:08:58.708Z,4.00
2024-02-14T06:11:26.288Z,3.78
2024-02-14T06:13:54.807Z,4.47
2024-02-14T06:16:22.438Z,4.30
2024-02-14T06:18:52.289Z,4.45
2024-02-14T06:21:23.674Z,4.05
2024-02-14T06:23:51.508Z,4.00
2024-02-14T06:26:19.695Z,4.57
2024-02-14T06:28:47.599Z,3.95
2024-02-14T06:31:17.882Z,3.80
2024-02-14T06:33:45.730Z,4.78
2024-02-14T06:36:17.588Z,5.00
2024-02-14T06:38:47.972Z,4.10
2024-02-14T06:41:15.596Z,4.10
2024-02-14T06:43:43.293Z,4.60
2024-02-14T06:46:10.784Z,4.32
2024-02-14T06:48:41.839Z,4.55
2024-02-14T06:51:09.942Z,4.45
2024-02-14T06:53:37.534Z,5.05
2024-02-14T06:56:10.072Z,4.68
2024-02-14T06:58:37.604Z,4.95
2024-02-14T07:01:05.455Z,6.75
2024-02-14T07:03:33.110Z,8.73
2024-02-14T07:06:01.048Z,7.25
2024-02-14T07:08:29.706Z,7.88
2024-02-14T07:10:57.750Z,6.93
2024-02-14T07:13:26.802Z,6.82
2024-02-14T07:15:54.772Z,6.45
2024-02-14T07:18:22.471Z,5.65
2024-02-14T07:20:50.124Z,6.60
2024-02-14T07:23:17.694Z,5.72
2024-02-14T07:25:45.990Z,5.50
2024-02-14T07:28:13.507Z,5.00
2024-02-14T07:30:42.639Z,5.43
2024-02-14T07:33:10.760Z,4.88
2024-02-14T07:35:38.660Z,5.18
2024-02-14T07:38:06.415Z,5.07
2024-02-14T07:40:34.628Z,5.53
2024-02-14T07:43:02.255Z,5.40
2024-02-14T07:45:29.863Z,4.85
2024-02-14T07:47:58.917Z,4.78
2024-02-14T07:50:29.091Z,5.13
2024-02-14T07:52:56.708Z,5.53
2024-02-14T07:55:25.239Z,4.82
2024-02-14T07:57:53.704Z,4.78
2024-02-14T08:00:24.630Z,4.93
2024-02-14T08:02:55.187Z,5.50
2024-02-14T08:05:24.479Z,5.30
2024-02-14T08:07:51.973Z,5.13
2024-02-14T08:10:19.810Z,5.38
2024-02-14T08:12:48.446Z,5.63
2024-02-14T08:15:16.136Z,5.40
2024-02-14T08:17:46.760Z,5.20
2024-02-14T08:20:15.259Z,5.55
2024-02-14T08:22:44.290Z,5.55
2024-02-14T08:25:12.820Z,5.72
2024-02-14T08:27:43.278Z,5.32
2024-02-14T08:30:12.896Z,5.28
2024-02-14T08:32:43.325Z,5.03
2024-02-14T08:35:15.079Z,5.15
2024-02-14T08:37:46.090Z,5.05
2024-02-14T08:40:13.917Z,5.22
2024-02-14T08:42:41.528Z,5.07
2024-02-14T08:45:10.571Z,5.18
2024-02-14T08:47:38.760Z,5.03
2024-02-14T08:50:09.910Z,5.13
2024-02-14T08:52:38.800Z,4.95
2024-02-14T08:55:11.989Z,5.90
2024-02-14T08:57:39.822Z,5.47
2024-02-14T09:00:08.836Z,5.35
2024-02-14T09:02:36.877Z,5.60
2024-02-14T09:05:06.887Z,5.68
2024-02-14T09:07:35.105Z,5.25
2024-02-14T09:10:02.582Z,4.88
2024-02-14T09:12:31.772Z,5.25
2024-02-14T09:15:00.303Z,5.05
2024-02-14T09:17:28.449Z,4.60
2024-02-14T09:19:56.019Z,5.05
2024-02-14T09:22:23.658Z,4.55
2024-02-14T09:24:53.440Z,4.50
2024-02-14T09:27:21.927Z,4.07
2024-02-14T09:29:51.001Z,4.63
2024-02-14T09:32:18.612Z,4.43
2024-02-14T09:34:47.040Z,4.63
2024-02-14T09:37:14.799Z,5.07
2024-02-14T09:39:44.457Z,4.93
2024-02-14T09:42:15.256Z,4.57
2024-02-14T09:44:42.954Z,4.03
2024-02-14T09:47:12.262Z,3.97
2024-02-14T09:49:40.882Z,4.05
2024-02-14T09:52:10.767Z,3.67
2024-02-14T09:54:40.115Z,3.75
2024-02-14T09:57:08.289Z,3.90
2024-02-14T09:59:36.010Z,3.40
2024-02-14T10:02:03.506Z,3.40
2024-02-14T10:04:32.547Z,3.33
2024-02-14T10:07:00.107Z,2.50
2024-02-14T10:09:27.767Z,3.20
2024-02-14T10:11:55.368Z,2.90
2024-02-14T10:14:24.905Z,2.90
2024-02-14T10:16:52.529Z,3.03
2024-02-14T10:19:20.522Z,3.60
2024-02-14T10:21:59.887Z,3.13
2024-02-14T10:24:27.724Z,3.00
2024-02-14T10:26:55.424Z,3.45
2024-02-14T10:29:23.017Z,3.42
2024-02-14T10:31:51.440Z,3.20
2024-02-14T10:34:19.648Z,3.22
2024-02-14T10:36:47.218Z,3.00
2024-02-14T10:39:17.679Z,3.00
2024-02-14T10:41:45.196Z,3.20
2024-02-14T10:44:13.775Z,3.08
2024-02-14T10:46:41.950Z,3.10
2024-02-14T10:49:10.275Z,3.42
2024-02-14T10:51:38.128Z,2.92
2024-02-14T10:54:07.149Z,3.40
2024-02-14T10:56:36.662Z,4.38
2024-02-14T10:59:05.193Z,3.63
2024-02-14T11:01:34.768Z,4.07
2024-02-14T11:04:02.908Z,3.78
2024-02-14T11:06:31.063Z,3.75
2024-02-14T11:08:59.787Z,3.42
2024-02-14T11:11:27.793Z,3.83
2024-02-14T11:13:57.616Z,4.13
2024-02-14T11:16:29.018Z,4.20
2024-02-14T11:19:07.764Z,4.78
2024-02-14T11:21:37.585Z,4.32
2024-02-14T11:24:09.444Z,3.90
2024-02-14T11:26:48.606Z,4.03
2024-02-14T11:29:20.503Z,3.67
2024-02-14T11:31:51.206Z,3.95
2024-02-14T11:34:19.062Z,3.88
2024-02-14T11:36:47.351Z,4.40
2024-02-14T11:39:19.854Z,4.35
2024-02-14T11:41:47.368Z,4.40
2024-02-14T11:44:14.937Z,5.75
2024-02-14T11:46:44.118Z,5.50
2024-02-14T11:49:12.686Z,4.88
2024-02-14T11:51:42.354Z,4.55
2024-02-14T11:54:10.988Z,5.00
2024-02-14T11:56:41.674Z,4.97
2024-02-14T11:59:10.901Z,4.10
2024-02-14T12:01:39.405Z,4.97
2024-02-14T12:04:09.948Z,5.20
2024-02-14T12:06:38.905Z,5.07
2024-02-14T12:09:07.425Z,5.57
2024-02-14T12:11:35.294Z,5.45
2024-02-14T12:14:03.588Z,5.50
2024-02-14T12:16:33.129Z,5.63
2024-02-14T12:19:10.949Z,4.80
2024-02-14T12:21:39.520Z,5.32
2024-02-14T12:24:08.977Z,4.75
2024-02-14T12:26:37.046Z,5.45
2024-02-14T12:29:14.289Z,5.93
2024-02-14T12:31:43.626Z,7.13
2024-02-14T12:34:25.287Z,6.70
2024-02-14T12:36:54.158Z,6.93
2024-02-14T12:39:21.797Z,7.55
2024-02-14T12:41:49.716Z,6.80
2024-02-14T12:44:17.274Z,7.47
2024-02-14T12:46:44.755Z,7.90
2024-02-14T12:49:12.504Z,8.40
2024-02-14T12:51:41.662Z,8.20
2024-02-14T12:54:11.257Z,8.55
2024-02-14T12:56:40.295Z,8.65
2024-02-14T12:59:09.009Z,8.15
2024-02-14T13:01:39.297Z,8.95
2024-02-14T13:04:08.815Z,8.25
2024-02-14T13:06:36.551Z,8.50
2024-02-14T13:09:09.380Z,8.68
2024-02-14T13:11:36.936Z,8.82
2024-02-14T13:14:05.228Z,7.88
2024-02-14T13:16:32.901Z,8.05
2024-02-14T13:19:00.519Z,7.88
2024-02-14T13:21:28.163Z,7.22
2024-02-14T13:23:58.131Z,7.55
2024-02-14T13:26:28.114Z,7.00
2024-02-14T13:28:56.617Z,7.75
2024-02-14T13:31:27.146Z,7.22
2024-02-14T13:33:54.733Z,7.00
2024-02-14T13:36:24.555Z,7.82
2024-02-14T13:38:52.109Z,7.43
2024-02-14T13:41:21.585Z,7.55
2024-02-14T13:43:50.674Z,6.63
2024-02-14T13:46:19.073Z,7.20
2024-02-14T13:48:48.781Z,6.80
2024-02-14T13:51:16.741Z,7.63
2024-02-14T13:53:44.578Z,6.45
2024-02-14T13:56:12.318Z,7.75
2024-02-14T13:58:40.432Z,7.78
2024-02-14T14:01:09.464Z,7.75
2024-02-14T14:03:37.852Z,8.75
2024-02-14T14:06:08.933Z,7.65
2024-02-14T14:08:37.674Z,7.72
2024-02-14T14:11:05.447Z,7.75
2024-02-14T14:13:34.914Z,6.63
2024-02-14T14:16:06.479Z,7.25
2024-02-14T14:18:38.412Z,7.88
2024-02-14T14:21:18.070Z,6.20
2024-02-14T14:23:48.554Z,6.00
2024-02-14T14:26:20.050Z,5.68
2024-02-14T14:28:53.697Z,6.85
2024-02-14T14:31:35.589Z,6.20
2024-02-14T14:34:05.419Z,5.95
2024-02-14T14:36:34.275Z,6.20
2024-02-14T14:39:08.139Z,6.35
2024-02-14T14:41:36.940Z,7.03
2024-02-14T14:44:07.905Z,6.47
2024-02-14T14:46:43.203Z,6.97
2024-02-14T14:49:13.523Z,7.25
2024-02-14T14:51:42.093Z,6.47
2024-02-14T14:54:13.523Z,7.22
2024-02-14T14:56:41.860Z,6.70
2024-02-14T14:59:16.433Z,7.00
2024-02-14T15:01:47.503Z,8.30
2024-02-14T15:04:24.870Z,7.18
2024-02-14T15:07:01.718Z,7.55
2024-02-14T15:09:31.131Z,6.85
2024-02-14T15:11:59.957Z,7.25
2024-02-14T15:14:32.023Z,6.45
2024-02-14T15:17:02.269Z,5.95
2024-02-14T15:19:34.941Z,6.30
2024-02-14T15:22:06.209Z,6.75
2024-02-14T15:24:37.530Z,6.57
2024-02-14T15:27:08.536Z,6.35
2024-02-14T15:29:53.791Z,6.50
2024-02-14T15:32:38.742Z,6.03
2024-02-14T15:35:09.987Z,5.43
2024-02-14T15:37:46.956Z,5.63
2024-02-14T15:40:15.159Z,6.25
2024-02-14T15:42:45.265Z,5.43
2024-02-14T15:45:17.027Z,20.38
2024-02-14T15:47:48.041Z,15.52
2024-02-14T15:50:18.002Z,14.48
2024-02-14T15:52:46.071Z,14.43
2024-02-14T15:55:14.645Z,7.80
2024-02-14T15:57:43.717Z,11.73
2024-02-14T16:00:22.231Z,7.78
2024-02-14T16:02:50.227Z,11.63
2024-02-14T16:05:20.340Z,9.52
2024-02-14T16:07:48.507Z,6.75
2024-02-14T16:10:16.679Z,8.93
2024-02-14T16:12:48.648Z,8.75
2024-02-14T16:15:20.145Z,8.70
2024-02-14T16:17:53.647Z,7.70
2024-02-14T16:20:23.927Z,10.57
2024-02-14T16:22:55.784Z,10.63
2024-02-14T16:25:31.971Z,10.63
2024-02-14T16:28:03.266Z,11.07
2024-02-14T16:30:34.339Z,9.15
2024-02-14T16:33:04.801Z,8.95
2024-02-14T16:35:35.961Z,8.55
2024-02-14T16:38:08.117Z,8.90
2024-02-14T16:40:36.317Z,9.65
2024-02-14T16:43:11.458Z,8.82
2024-02-14T16:45:39.993Z,9.00
2024-02-14T16:48:08.915Z,8.90
2024-02-14T16:50:38.747Z,9.63
2024-02-14T16:53:07.087Z,9.77
2024-02-14T16:55:34.732Z,9.80
2024-02-14T16:58:02.862Z,9.95
2024-02-14T17:00:33.449Z,10.63
2024-02-14T17:03:11.385Z,9.52
2024-02-14T17:05:48.809Z,9.63
2024-02-14T17:08:16.714Z,8.80
2024-02-14T17:10:44.911Z,9.20
2024-02-14T17:13:19.603Z,8.60
2024-02-14T17:15:48.763Z,8.88
2024-02-14T17:18:17.173Z,8.90
2024-02-14T17:20:50.561Z,7.78
2024-02-14T17:23:19.007Z,7.90
2024-02-14T17:25:46.543Z,7.72
2024-02-14T17:28:14.031Z,9.23
2024-02-14T17:30:44.961Z,8.07
2024-02-14T17:33:13.824Z,7.55
2024-02-14T17:35:42.236Z,8.68
2024-02-14T17:38:11.371Z,7.97
2024-02-14T17:40:38.926Z,7.90
2024-02-14T17:43:06.592Z,8.85
2024-02-14T17:45:35.175Z,8.50
2024-02-14T17:48:02.885Z,8.48
2024-02-14T17:50:30.744Z,9.32
2024-02-14T17:52:58.299Z,8.77
2024-02-14T17:55:27.759Z,8.52
2024-02-14T17:57:55.416Z,8.50
2024-02-14T18:00:24.024Z,8.07
2024-02-14T18:02:52.758Z,9.50
2024-02-14T18:05:21.731Z,9.38
2024-02-14T18:07:49.631Z,8.80
2024-02-14T18:10:17.298Z,9.02
2024-02-14T18:12:46.141Z,8.68
2024-02-14T18:15:13.965Z,8.15
2024-02-14T18:17:41.747Z,8.63
2024-02-14T18:20:09.804Z,9.82
2024-02-14T18:22:37.296Z,9.75
2024-02-14T18:25:05.908Z,9.30
2024-02-14T18:27:33.433Z,9.77
2024-02-14T18:30:02.569Z,8.98
2024-02-14T18:32:30.194Z,9.05
2024-02-14T18:34:57.928Z,8.00
2024-02-14T18:37:25.785Z,8.63
2024-02-14T18:39:54.924Z,9.05
2024-02-14T18:42:22.439Z,9.20
2024-02-14T18:44:49.968Z,9.98
2024-02-14T18:47:18.913Z,9.70
2024-02-14T18:49:47.110Z,9.60
2024-02-14T18:52:14.803Z,9.90
2024-02-14T18:54:42.400Z,10.90
2024-02-14T18:57:10.631Z,10.63
2024-02-14T18:59:38.566Z,10.55
2024-02-14T19:02:06.037Z,10.82
2024-02-14T19:04:35.132Z,11.82
2024-02-14T19:07:02.768Z,10.95
2024-02-14T19:09:32.637Z,11.23
2024-02-14T19:12:00.253Z,11.20
2024-02-14T19:14:27.875Z,12.30
2024-02-14T19:16:55.293Z,12.20
2024-02-14T19:19:22.899Z,12.40
2024-02-14T19:21:51.837Z,12.10
2024-02-14T19:24:19.389Z,12.25
2024-02-14T19:26:47.053Z,12.88
2024-02-14T19:29:14.579Z,11.93
2024-02-14T19:31:42.144Z,12.95
2024-02-14T19:34:09.731Z,12.10
2024-02-14T19:36:37.260Z,12.63
2024-02-14T19:39:07.562Z,11.77
2024-02-14T19:41:37.270Z,12.38
2024-02-14T19:44:05.046Z,12.05
2024-02-14T19:46:33.696Z,12.35
2024-02-14T19:49:01.514Z,12.32
2024-02-14T19:51:31.086Z,12.23
2024-02-14T19:53:58.632Z,12.70
2024-02-14T19:56:29.243Z,12.20
2024-02-14T19:58:56.814Z,13.57
2024-02-14T20:01:24.731Z,13.90
2024-02-14T20:03:52.853Z,13.32
2024-02-14T20:06:20.431Z,13.57
2024-02-14T20:08:47.942Z,13.43
2024-02-14T20:11:15.555Z,13.75
2024-02-14T20:13:45.243Z,14.45
2024-02-14T20:16:14.357Z,13.98
2024-02-14T20:18:42.118Z,13.13
2024-02-14T20:21:09.765Z,13.88
2024-02-14T20:23:37.367Z,14.07
2024-02-14T20:26:06.005Z,14.57
2024-02-14T20:28:33.480Z,13.35
2024-02-14T20:31:02.449Z,13.45
2024-02-14T20:35:57.616Z,14.25
2024-02-14T20:38:25.170Z,18.30
2024-02-14T20:40:52.812Z,17.08
2024-02-14T20:43:22.062Z,16.85
2024-02-14T20:45:49.678Z,14.50
2024-02-14T20:48:18.790Z,15.15
2024-02-14T20:50:46.580Z,14.55
2024-02-14T20:53:14.027Z,14.20
2024-02-14T20:55:41.438Z,14.98
2024-02-14T20:58:08.796Z,13.52
2024-02-14T21:00:36.418Z,22.58
2024-02-14T21:03:04.349Z,29.92
2024-02-14T21:05:33.310Z,15.85
2024-02-14T21:08:00.817Z,15.13
2024-02-14T21:10:28.980Z,14.50
2024-02-14T21:12:56.563Z,14.32
2024-02-14T21:15:25.888Z,12.80
2024-02-14T21:17:54.585Z,15.27
2024-02-14T21:20:22.185Z,14.20
2024-02-14T21:22:51.030Z,13.60
2024-02-14T21:25:18.514Z,13.40
2024-02-14T21:27:46.720Z,13.77
2024-02-14T21:30:14.782Z,15.93
2024-02-14T21:32:42.316Z,14.23
2024-02-14T21:35:12.223Z,14.63
2024-02-14T21:37:39.860Z,13.65
2024-02-14T21:40:11.732Z,14.05
2024-02-14T21:42:40.441Z,13.57
2024-02-14T21:45:08.722Z,13.73
2024-02-14T21:47:37.162Z,13.55
2024-02-14T21:50:04.944Z,14.50
2024-02-14T21:52:32.656Z,13.75
2024-02-14T21:55:00.343Z,14.68
2024-02-14T21:57:29.469Z,16.85
2024-02-14T21:59:57.305Z,12.90
2024-02-14T22:02:24.882Z,12.65
2024-02-14T22:04:52.879Z,12.70
2024-02-14T22:07:21.072Z,13.85
2024-02-14T22:09:49.638Z,14.93
2024-02-14T22:12:17.199Z,13.90
2024-02-14T22:14:48.342Z,13.25
2024-02-14T22:17:18.316Z,14.60
2024-02-14T22:19:45.920Z,14.50
2024-02-14T22:22:19.248Z,14.57
2024-02-14T22:24:47.197Z,13.20
2024-02-14T22:27:14.741Z,14.10
2024-02-14T22:29:42.403Z,14.20
2024-02-14T22:32:13.397Z,13.63
2024-02-14T22:34:41.155Z,12.82
2024-02-14T22:37:08.650Z,13.25
2024-02-14T22:39:36.191Z,14.38
2024-02-14T22:42:04.815Z,13.63
2024-02-14T22:44:32.428Z,13.88
2024-02-14T22:46:59.945Z,14.63
2024-02-14T22:49:28.823Z,14.15
2024-02-14T22:51:56.736Z,14.65
2024-02-14T22:54:24.269Z,14.70
2024-02-14T22:56:52.495Z,14.80
2024-02-14T22:59:20.351Z,13.32
2024-02-14T23:01:47.903Z,14.15
2024-02-14T23:04:15.511Z,13.77
2024-02-14T23:06:44.543Z,12.30
2024-02-14T23:09:12.381Z,13.05
2024-02-14T23:11:39.907Z,13.40
2024-02-14T23:14:07.468Z,13.35
2024-02-14T23:16:37.202Z,13.77
2024-02-14T23:19:05.271Z,13.57
2024-02-14T23:21:33.047Z,12.60
2024-02-14T23:24:01.860Z,14.35
2024-02-14T23:26:29.413Z,12.65
2024-02-14T23:28:59.322Z,11.88
2024-02-14T23:31:28.747Z,12.10
2024-02-14T23:33:57.363Z,12.38
2024-02-14T23:36:27.528Z,10.27
2024-02-14T23:38:55.152Z,11.82
2024-02-14T23:41:24.886Z,13.02
2024-02-14T23:43:53.830Z,12.63
2024-02-14T23:46:21.280Z,12.30
2024-02-14T23:48:49.586Z,12.52
2024-02-14T23:51:19.545Z,10.88
2024-02-14T23:53:48.656Z,11.32
2024-02-14T23:56:17.148Z,11.90
2024-02-14T23:58:46.425Z,12.70
